sensor_id;sensor_type;location;lat;lon;timestamp;P1;durP1;ratioP1;P2;durP2;ratioP2
10641;SDS011;5369;49.586;8.646;2023-03-19T00:01:56;10.30;;;7.60;;
10641;SDS011;5369;49.586;8.646;2023-03-19T00:04:23;11.53;;;7.90;;
10641;SDS011;5369;49.586;8.646;2023-03-19T00:06:49;10.87;;;7.50;;
10641;SDS011;5369;49.586;8.646;2023-03-19T00:09:16;12.87;;;8.27;;
10641;SDS011;5369;49.586;8.646;2023-03-19T00:11:42;13.67;;;7.50;;
10641;SDS011;5369;49.586;8.646;2023-03-19T00:14:08;9.90;;;7.17;;
10641;SDS011;5369;49.586;8.646;2023-03-19T00:16:34;11.33;;;7.63;;
10641;SDS011;5369;49.586;8.646;2023-03-19T00:19:01;11.70;;;7.20;;
10641;SDS011;5369;49.586;8.646;2023-03-19T00:21:28;10.83;;;6.83;;
10641;SDS011;5369;49.586;8.646;2023-03-19T00:23:55;10.43;;;6.57;;
10641;SDS011;5369;49.586;8.646;2023-03-19T00:26:28;9.43;;;6.63;;
10641;SDS011;5369;49.586;8.646;2023-03-19T00:28:55;9.57;;;6.13;;
10641;SDS011;5369;49.586;8.646;2023-03-19T00:31:21;10.77;;;7.57;;
10641;SDS011;5369;49.586;8.646;2023-03-19T00:33:48;10.87;;;7.30;;
10641;SDS011;5369;49.586;8.646;2023-03-19T00:36:14;10.97;;;7.00;;
10641;SDS011;5369;49.586;8.646;2023-03-19T00:38:41;10.63;;;6.90;;
10641;SDS011;5369;49.586;8.646;2023-03-19T00:41:08;10.00;;;7.30;;
10641;SDS011;5369;49.586;8.646;2023-03-19T00:43:34;11.70;;;7.20;;
10641;SDS011;5369;49.586;8.646;2023-03-19T00:46:00;16.00;;;7.97;;
10641;SDS011;5369;49.586;8.646;2023-03-19T00:48:27;12.43;;;8.00;;
10641;SDS011;5369;49.586;8.646;2023-03-19T00:50:53;10.20;;;7.97;;
10641;SDS011;5369;49.586;8.646;2023-03-19T00:53:19;11.90;;;7.60;;
10641;SDS011;5369;49.586;8.646;2023-03-19T00:55:45;10.60;;;7.23;;
10641;SDS011;5369;49.586;8.646;2023-03-19T00:58:11;10.63;;;8.33;;
10641;SDS011;5369;49.586;8.646;2023-03-19T01:00:38;21.33;;;10.23;;
10641;SDS011;5369;49.586;8.646;2023-03-19T01:03:06;17.57;;;9.80;;
10641;SDS011;5369;49.586;8.646;2023-03-19T01:05:35;22.63;;;12.77;;
10641;SDS011;5369;49.586;8.646;2023-03-19T01:08:01;20.83;;;12.13;;
10641;SDS011;5369;49.586;8.646;2023-03-19T01:10:29;17.83;;;10.50;;
10641;SDS011;5369;49.586;8.646;2023-03-19T01:12:55;17.70;;;9.70;;
10641;SDS011;5369;49.586;8.646;2023-03-19T01:15:21;12.03;;;8.30;;
10641;SDS011;5369;49.586;8.646;2023-03-19T01:17:47;11.10;;;7.17;;
10641;SDS011;5369;49.586;8.646;2023-03-19T01:20:14;10.87;;;7.40;;
10641;SDS011;5369;49.586;8.646;2023-03-19T01:22:43;10.10;;;7.67;;
10641;SDS011;5369;49.586;8.646;2023-03-19T01:25:10;10.83;;;7.27;;
10641;SDS011;5369;49.586;8.646;2023-03-19T01:27:39;10.83;;;6.40;;
10641;SDS011;5369;49.586;8.646;2023-03-19T01:30:05;11.00;;;8.30;;
10641;SDS011;5369;49.586;8.646;2023-03-19T01:32:55;12.80;;;8.17;;
10641;SDS011;5369;49.586;8.646;2023-03-19T01:35:53;9.13;;;7.30;;
10641;SDS011;5369;49.586;8.646;2023-03-19T01:38:25;12.97;;;8.17;;
10641;SDS011;5369;49.586;8.646;2023-03-19T01:40:55;11.17;;;7.47;;
10641;SDS011;5369;49.586;8.646;2023-03-19T01:43:23;16.17;;;10.07;;
10641;SDS011;5369;49.586;8.646;2023-03-19T01:46:14;13.43;;;8.03;;
10641;SDS011;5369;49.586;8.646;2023-03-19T01:49:12;19.93;;;10.90;;
10641;SDS011;5369;49.586;8.646;2023-03-19T01:51:40;16.53;;;9.10;;
10641;SDS011;5369;49.586;8.646;2023-03-19T01:54:17;13.30;;;8.30;;
10641;SDS011;5369;49.586;8.646;2023-03-19T01:56:50;16.13;;;9.00;;
10641;SDS011;5369;49.586;8.646;2023-03-19T01:59:26;14.33;;;8.90;;
10641;SDS011;5369;49.586;8.646;2023-03-19T02:02:17;16.80;;;9.90;;
10641;SDS011;5369;49.586;8.646;2023-03-19T02:04:46;14.57;;;8.87;;
10641;SDS011;5369;49.586;8.646;2023-03-19T02:07:14;10.97;;;7.70;;
10641;SDS011;5369;49.586;8.646;2023-03-19T02:09:41;8.93;;;6.70;;
10641;SDS011;5369;49.586;8.646;2023-03-19T02:12:08;10.40;;;7.07;;
10641;SDS011;5369;49.586;8.646;2023-03-19T02:14:34;7.83;;;6.50;;
10641;SDS011;5369;49.586;8.646;2023-03-19T02:17:01;9.17;;;6.73;;
10641;SDS011;5369;49.586;8.646;2023-03-19T02:19:37;8.47;;;7.07;;
10641;SDS011;5369;49.586;8.646;2023-03-19T02:22:05;9.20;;;6.70;;
10641;SDS011;5369;49.586;8.646;2023-03-19T02:24:32;9.23;;;7.00;;
10641;SDS011;5369;49.586;8.646;2023-03-19T02:27:05;18.03;;;8.57;;
10641;SDS011;5369;49.586;8.646;2023-03-19T02:29:36;17.80;;;9.50;;
10641;SDS011;5369;49.586;8.646;2023-03-19T02:32:03;18.70;;;10.40;;
10641;SDS011;5369;49.586;8.646;2023-03-19T02:34:33;28.00;;;11.70;;
10641;SDS011;5369;49.586;8.646;2023-03-19T02:37:02;22.83;;;11.43;;
10641;SDS011;5369;49.586;8.646;2023-03-19T02:39:30;15.33;;;9.37;;
10641;SDS011;5369;49.586;8.646;2023-03-19T02:41:58;24.27;;;11.90;;
10641;SDS011;5369;49.586;8.646;2023-03-19T02:44:25;33.20;;;13.87;;
10641;SDS011;5369;49.586;8.646;2023-03-19T02:46:52;20.87;;;11.07;;
10641;SDS011;5369;49.586;8.646;2023-03-19T02:49:18;12.77;;;8.10;;
10641;SDS011;5369;49.586;8.646;2023-03-19T02:51:44;13.23;;;7.70;;
10641;SDS011;5369;49.586;8.646;2023-03-19T02:54:10;25.73;;;11.77;;
10641;SDS011;5369;49.586;8.646;2023-03-19T02:56:36;21.90;;;10.97;;
10641;SDS011;5369;49.586;8.646;2023-03-19T02:59:03;40.43;;;15.77;;
10641;SDS011;5369;49.586;8.646;2023-03-19T03:01:30;38.07;;;15.77;;
10641;SDS011;5369;49.586;8.646;2023-03-19T03:03:56;50.47;;;18.20;;
10641;SDS011;5369;49.586;8.646;2023-03-19T03:06:23;28.87;;;12.70;;
10641;SDS011;5369;49.586;8.646;2023-03-19T03:08:49;17.73;;;8.90;;
10641;SDS011;5369;49.586;8.646;2023-03-19T03:11:16;11.67;;;8.67;;
10641;SDS011;5369;49.586;8.646;2023-03-19T03:13:42;9.97;;;7.33;;
10641;SDS011;5369;49.586;8.646;2023-03-19T03:16:08;10.47;;;7.20;;
10641;SDS011;5369;49.586;8.646;2023-03-19T03:18:35;10.27;;;7.93;;
10641;SDS011;5369;49.586;8.646;2023-03-19T03:21:01;8.77;;;6.63;;
10641;SDS011;5369;49.586;8.646;2023-03-19T03:23:28;9.67;;;7.07;;
10641;SDS011;5369;49.586;8.646;2023-03-19T03:25:54;10.90;;;7.53;;
10641;SDS011;5369;49.586;8.646;2023-03-19T03:28:20;11.87;;;7.47;;
10641;SDS011;5369;49.586;8.646;2023-03-19T03:30:46;13.43;;;7.77;;
10641;SDS011;5369;49.586;8.646;2023-03-19T03:33:13;23.57;;;10.47;;
10641;SDS011;5369;49.586;8.646;2023-03-19T03:35:42;11.40;;;7.07;;
10641;SDS011;5369;49.586;8.646;2023-03-19T03:38:09;11.40;;;6.43;;
10641;SDS011;5369;49.586;8.646;2023-03-19T03:40:35;11.17;;;6.20;;
10641;SDS011;5369;49.586;8.646;2023-03-19T03:43:01;10.00;;;6.03;;
10641;SDS011;5369;49.586;8.646;2023-03-19T03:45:29;10.03;;;6.33;;
10641;SDS011;5369;49.586;8.646;2023-03-19T03:47:55;9.70;;;6.27;;
10641;SDS011;5369;49.586;8.646;2023-03-19T03:50:22;9.33;;;6.53;;
10641;SDS011;5369;49.586;8.646;2023-03-19T03:52:50;8.63;;;5.90;;
10641;SDS011;5369;49.586;8.646;2023-03-19T03:55:17;8.97;;;6.13;;
10641;SDS011;5369;49.586;8.646;2023-03-19T03:57:43;6.93;;;5.30;;
10641;SDS011;5369;49.586;8.646;2023-03-19T04:00:09;6.83;;;5.33;;
10641;SDS011;5369;49.586;8.646;2023-03-19T04:02:39;8.50;;;5.20;;
10641;SDS011;5369;49.586;8.646;2023-03-19T04:05:07;6.80;;;4.93;;
10641;SDS011;5369;49.586;8.646;2023-03-19T04:07:35;6.87;;;4.80;;
10641;SDS011;5369;49.586;8.646;2023-03-19T04:10:02;7.07;;;5.33;;
10641;SDS011;5369;49.586;8.646;2023-03-19T04:12:28;7.53;;;5.50;;
10641;SDS011;5369;49.586;8.646;2023-03-19T04:14:54;6.90;;;5.30;;
10641;SDS011;5369;49.586;8.646;2023-03-19T04:17:21;6.97;;;5.43;;
10641;SDS011;5369;49.586;8.646;2023-03-19T04:19:47;8.83;;;5.77;;
10641;SDS011;5369;49.586;8.646;2023-03-19T04:22:14;7.93;;;5.83;;
10641;SDS011;5369;49.586;8.646;2023-03-19T04:24:40;9.07;;;6.03;;
10641;SDS011;5369;49.586;8.646;2023-03-19T04:27:06;7.27;;;5.30;;
10641;SDS011;5369;49.586;8.646;2023-03-19T04:29:33;9.70;;;5.97;;
10641;SDS011;5369;49.586;8.646;2023-03-19T04:32:00;7.37;;;5.20;;
10641;SDS011;5369;49.586;8.646;2023-03-19T04:34:26;7.17;;;5.07;;
10641;SDS011;5369;49.586;8.646;2023-03-19T04:36:52;9.37;;;5.33;;
10641;SDS011;5369;49.586;8.646;2023-03-19T04:39:18;6.60;;;5.30;;
10641;SDS011;5369;49.586;8.646;2023-03-19T04:41:45;7.03;;;5.20;;
10641;SDS011;5369;49.586;8.646;2023-03-19T04:44:27;7.70;;;4.90;;
10641;SDS011;5369;49.586;8.646;2023-03-19T04:46:54;8.90;;;4.37;;
10641;SDS011;5369;49.586;8.646;2023-03-19T04:49:21;6.43;;;4.50;;
10641;SDS011;5369;49.586;8.646;2023-03-19T04:51:48;8.00;;;5.60;;
10641;SDS011;5369;49.586;8.646;2023-03-19T04:54:15;6.33;;;5.30;;
10641;SDS011;5369;49.586;8.646;2023-03-19T04:56:41;7.90;;;5.20;;
10641;SDS011;5369;49.586;8.646;2023-03-19T04:59:08;8.97;;;6.07;;
10641;SDS011;5369;49.586;8.646;2023-03-19T05:01:35;6.23;;;5.50;;
10641;SDS011;5369;49.586;8.646;2023-03-19T05:04:05;8.70;;;6.23;;
10641;SDS011;5369;49.586;8.646;2023-03-19T05:06:33;6.73;;;5.10;;
10641;SDS011;5369;49.586;8.646;2023-03-19T05:09:00;5.73;;;4.80;;
10641;SDS011;5369;49.586;8.646;2023-03-19T05:11:27;7.27;;;5.13;;
10641;SDS011;5369;49.586;8.646;2023-03-19T05:14:01;7.30;;;5.00;;
10641;SDS011;5369;49.586;8.646;2023-03-19T05:16:35;7.97;;;4.87;;
10641;SDS011;5369;49.586;8.646;2023-03-19T05:19:03;6.03;;;4.67;;
10641;SDS011;5369;49.586;8.646;2023-03-19T05:21:30;6.57;;;4.90;;
10641;SDS011;5369;49.586;8.646;2023-03-19T05:23:57;8.33;;;5.00;;
10641;SDS011;5369;49.586;8.646;2023-03-19T05:26:24;5.83;;;4.60;;
10641;SDS011;5369;49.586;8.646;2023-03-19T05:29:09;6.90;;;4.60;;
10641;SDS011;5369;49.586;8.646;2023-03-19T05:31:49;6.37;;;4.90;;
10641;SDS011;5369;49.586;8.646;2023-03-19T05:34:18;5.63;;;4.07;;
10641;SDS011;5369;49.586;8.646;2023-03-19T05:36:45;5.97;;;4.30;;
10641;SDS011;5369;49.586;8.646;2023-03-19T05:39:15;7.90;;;4.07;;
10641;SDS011;5369;49.586;8.646;2023-03-19T05:41:42;9.13;;;4.50;;
10641;SDS011;5369;49.586;8.646;2023-03-19T05:44:10;5.90;;;4.00;;
10641;SDS011;5369;49.586;8.646;2023-03-19T05:47:00;6.00;;;4.20;;
10641;SDS011;5369;49.586;8.646;2023-03-19T05:49:30;7.47;;;4.30;;
10641;SDS011;5369;49.586;8.646;2023-03-19T05:51:56;4.93;;;3.73;;
10641;SDS011;5369;49.586;8.646;2023-03-19T05:54:22;6.40;;;4.00;;
10641;SDS011;5369;49.586;8.646;2023-03-19T05:56:56;6.67;;;3.77;;
10641;SDS011;5369;49.586;8.646;2023-03-19T05:59:41;6.10;;;4.87;;
10641;SDS011;5369;49.586;8.646;2023-03-19T06:02:29;5.67;;;4.27;;
10641;SDS011;5369;49.586;8.646;2023-03-19T06:05:10;5.50;;;4.17;;
10641;SDS011;5369;49.586;8.646;2023-03-19T06:07:37;6.77;;;4.40;;
10641;SDS011;5369;49.586;8.646;2023-03-19T06:10:08;7.20;;;4.37;;
10641;SDS011;5369;49.586;8.646;2023-03-19T06:12:34;5.10;;;3.80;;
10641;SDS011;5369;49.586;8.646;2023-03-19T06:15:15;4.80;;;3.93;;
10641;SDS011;5369;49.586;8.646;2023-03-19T06:18:02;4.93;;;3.70;;
10641;SDS011;5369;49.586;8.646;2023-03-19T06:20:29;6.03;;;4.07;;
10641;SDS011;5369;49.586;8.646;2023-03-19T06:22:56;5.67;;;3.70;;
10641;SDS011;5369;49.586;8.646;2023-03-19T06:25:22;7.63;;;3.93;;
10641;SDS011;5369;49.586;8.646;2023-03-19T06:27:49;5.67;;;4.20;;
10641;SDS011;5369;49.586;8.646;2023-03-19T06:30:29;5.60;;;4.10;;
10641;SDS011;5369;49.586;8.646;2023-03-19T06:32:58;5.87;;;4.10;;
10641;SDS011;5369;49.586;8.646;2023-03-19T06:35:24;5.57;;;4.00;;
10641;SDS011;5369;49.586;8.646;2023-03-19T06:37:52;4.87;;;3.90;;
10641;SDS011;5369;49.586;8.646;2023-03-19T06:40:18;5.20;;;3.70;;
10641;SDS011;5369;49.586;8.646;2023-03-19T06:42:44;5.83;;;4.40;;
10641;SDS011;5369;49.586;8.646;2023-03-19T06:45:12;5.20;;;4.00;;
10641;SDS011;5369;49.586;8.646;2023-03-19T06:47:43;5.33;;;3.80;;
10641;SDS011;5369;49.586;8.646;2023-03-19T06:50:10;4.97;;;3.90;;
10641;SDS011;5369;49.586;8.646;2023-03-19T06:52:36;6.57;;;4.27;;
10641;SDS011;5369;49.586;8.646;2023-03-19T06:55:03;5.67;;;3.97;;
10641;SDS011;5369;49.586;8.646;2023-03-19T06:57:29;4.57;;;3.63;;
10641;SDS011;5369;49.586;8.646;2023-03-19T06:59:55;4.83;;;4.00;;
10641;SDS011;5369;49.586;8.646;2023-03-19T07:02:21;6.10;;;4.27;;
10641;SDS011;5369;49.586;8.646;2023-03-19T07:04:47;6.03;;;4.27;;
10641;SDS011;5369;49.586;8.646;2023-03-19T07:07:13;6.07;;;4.10;;
10641;SDS011;5369;49.586;8.646;2023-03-19T07:09:40;4.30;;;3.57;;
10641;SDS011;5369;49.586;8.646;2023-03-19T07:12:06;4.80;;;4.07;;
10641;SDS011;5369;49.586;8.646;2023-03-19T07:14:32;5.43;;;4.00;;
10641;SDS011;5369;49.586;8.646;2023-03-19T07:16:58;5.90;;;4.00;;
10641;SDS011;5369;49.586;8.646;2023-03-19T07:19:25;5.70;;;4.00;;
10641;SDS011;5369;49.586;8.646;2023-03-19T07:21:51;5.50;;;4.03;;
10641;SDS011;5369;49.586;8.646;2023-03-19T07:24:17;5.03;;;3.77;;
10641;SDS011;5369;49.586;8.646;2023-03-19T07:26:43;7.37;;;4.20;;
10641;SDS011;5369;49.586;8.646;2023-03-19T07:29:10;6.77;;;4.00;;
10641;SDS011;5369;49.586;8.646;2023-03-19T07:31:37;7.00;;;3.90;;
10641;SDS011;5369;49.586;8.646;2023-03-19T07:34:03;4.50;;;3.53;;
10641;SDS011;5369;49.586;8.646;2023-03-19T07:36:29;5.77;;;4.40;;
10641;SDS011;5369;49.586;8.646;2023-03-19T07:38:55;6.20;;;4.00;;
10641;SDS011;5369;49.586;8.646;2023-03-19T07:41:21;5.23;;;3.90;;
10641;SDS011;5369;49.586;8.646;2023-03-19T07:43:47;5.63;;;3.90;;
10641;SDS011;5369;49.586;8.646;2023-03-19T07:46:14;4.80;;;4.00;;
10641;SDS011;5369;49.586;8.646;2023-03-19T07:48:40;5.87;;;3.80;;
10641;SDS011;5369;49.586;8.646;2023-03-19T07:51:06;6.27;;;4.00;;
10641;SDS011;5369;49.586;8.646;2023-03-19T07:53:32;4.87;;;3.30;;
10641;SDS011;5369;49.586;8.646;2023-03-19T07:55:58;5.13;;;3.63;;
10641;SDS011;5369;49.586;8.646;2023-03-19T07:58:25;5.73;;;4.00;;
10641;SDS011;5369;49.586;8.646;2023-03-19T08:00:52;7.20;;;3.70;;
10641;SDS011;5369;49.586;8.646;2023-03-19T08:03:18;4.70;;;3.93;;
10641;SDS011;5369;49.586;8.646;2023-03-19T08:05:47;4.43;;;3.40;;
10641;SDS011;5369;49.586;8.646;2023-03-19T08:08:14;6.00;;;3.70;;
10641;SDS011;5369;49.586;8.646;2023-03-19T08:10:41;4.77;;;3.90;;
10641;SDS011;5369;49.586;8.646;2023-03-19T08:13:07;6.97;;;3.80;;
10641;SDS011;5369;49.586;8.646;2023-03-19T08:15:33;4.20;;;3.80;;
10641;SDS011;5369;49.586;8.646;2023-03-19T08:18:00;4.70;;;3.80;;
10641;SDS011;5369;49.586;8.646;2023-03-19T08:20:27;5.50;;;3.60;;
10641;SDS011;5369;49.586;8.646;2023-03-19T08:22:53;4.67;;;3.50;;
10641;SDS011;5369;49.586;8.646;2023-03-19T08:25:20;6.43;;;4.07;;
10641;SDS011;5369;49.586;8.646;2023-03-19T08:27:47;5.33;;;3.67;;
10641;SDS011;5369;49.586;8.646;2023-03-19T08:30:13;4.67;;;3.30;;
10641;SDS011;5369;49.586;8.646;2023-03-19T08:32:39;5.30;;;3.50;;
10641;SDS011;5369;49.586;8.646;2023-03-19T08:35:06;5.30;;;3.87;;
10641;SDS011;5369;49.586;8.646;2023-03-19T08:37:32;4.77;;;3.80;;
10641;SDS011;5369;49.586;8.646;2023-03-19T08:39:58;7.20;;;3.80;;
10641;SDS011;5369;49.586;8.646;2023-03-19T08:42:24;6.40;;;3.80;;
10641;SDS011;5369;49.586;8.646;2023-03-19T08:44:51;4.37;;;3.60;;
10641;SDS011;5369;49.586;8.646;2023-03-19T08:47:17;6.33;;;3.40;;
10641;SDS011;5369;49.586;8.646;2023-03-19T08:49:43;4.10;;;3.17;;
10641;SDS011;5369;49.586;8.646;2023-03-19T08:52:09;6.67;;;3.80;;
10641;SDS011;5369;49.586;8.646;2023-03-19T08:54:35;7.70;;;4.73;;
10641;SDS011;5369;49.586;8.646;2023-03-19T08:57:02;5.47;;;3.60;;
10641;SDS011;5369;49.586;8.646;2023-03-19T08:59:28;5.73;;;3.60;;
10641;SDS011;5369;49.586;8.646;2023-03-19T09:01:54;5.17;;;3.57;;
10641;SDS011;5369;49.586;8.646;2023-03-19T09:04:21;4.43;;;3.50;;
10641;SDS011;5369;49.586;8.646;2023-03-19T09:06:47;6.97;;;3.20;;
10641;SDS011;5369;49.586;8.646;2023-03-19T09:09:20;7.50;;;3.50;;
10641;SDS011;5369;49.586;8.646;2023-03-19T09:11:46;5.33;;;3.57;;
10641;SDS011;5369;49.586;8.646;2023-03-19T09:14:13;3.77;;;3.20;;
10641;SDS011;5369;49.586;8.646;2023-03-19T09:16:41;4.30;;;3.47;;
10641;SDS011;5369;49.586;8.646;2023-03-19T09:19:07;4.40;;;3.47;;
10641;SDS011;5369;49.586;8.646;2023-03-19T09:21:34;4.47;;;3.40;;
10641;SDS011;5369;49.586;8.646;2023-03-19T09:24:00;5.73;;;3.40;;
10641;SDS011;5369;49.586;8.646;2023-03-19T09:26:27;4.37;;;3.30;;
10641;SDS011;5369;49.586;8.646;2023-03-19T09:28:53;4.77;;;3.40;;
10641;SDS011;5369;49.586;8.646;2023-03-19T09:31:20;5.77;;;3.30;;
10641;SDS011;5369;49.586;8.646;2023-03-19T09:33:46;3.93;;;3.13;;
10641;SDS011;5369;49.586;8.646;2023-03-19T09:36:12;4.70;;;3.23;;
10641;SDS011;5369;49.586;8.646;2023-03-19T09:38:38;5.60;;;3.43;;
10641;SDS011;5369;49.586;8.646;2023-03-19T09:46:20;7.30;;;3.70;;
10641;SDS011;5369;49.586;8.646;2023-03-19T09:51:15;5.97;;;3.43;;
10641;SDS011;5369;49.586;8.646;2023-03-19T09:53:52;4.87;;;3.20;;
10641;SDS011;5369;49.586;8.646;2023-03-19T09:56:23;5.07;;;3.50;;
10641;SDS011;5369;49.586;8.646;2023-03-19T09:58:50;8.13;;;4.23;;
10641;SDS011;5369;49.586;8.646;2023-03-19T10:01:21;4.53;;;3.63;;
10641;SDS011;5369;49.586;8.646;2023-03-19T10:06:33;3.10;;;2.67;;
10641;SDS011;5369;49.586;8.646;2023-03-19T10:14:17;4.40;;;2.70;;
10641;SDS011;5369;49.586;8.646;2023-03-19T10:16:48;3.80;;;2.90;;
10641;SDS011;5369;49.586;8.646;2023-03-19T10:19:16;6.93;;;3.00;;
10641;SDS011;5369;49.586;8.646;2023-03-19T10:21:48;4.83;;;2.50;;
10641;SDS011;5369;49.586;8.646;2023-03-19T10:24:26;5.23;;;2.93;;
10641;SDS011;5369;49.586;8.646;2023-03-19T10:26:57;5.20;;;3.43;;
10641;SDS011;5369;49.586;8.646;2023-03-19T10:29:23;5.57;;;3.00;;
10641;SDS011;5369;49.586;8.646;2023-03-19T10:32:02;3.87;;;2.83;;
10641;SDS011;5369;49.586;8.646;2023-03-19T10:34:34;5.47;;;3.20;;
10641;SDS011;5369;49.586;8.646;2023-03-19T10:39:32;3.67;;;3.00;;
10641;SDS011;5369;49.586;8.646;2023-03-19T10:44:34;6.50;;;3.20;;
10641;SDS011;5369;49.586;8.646;2023-03-19T10:47:09;5.00;;;3.17;;
10641;SDS011;5369;49.586;8.646;2023-03-19T10:49:36;4.83;;;2.80;;
10641;SDS011;5369;49.586;8.646;2023-03-19T10:52:02;3.83;;;2.60;;
10641;SDS011;5369;49.586;8.646;2023-03-19T10:54:29;4.67;;;3.03;;
10641;SDS011;5369;49.586;8.646;2023-03-19T10:56:56;5.57;;;2.83;;
10641;SDS011;5369;49.586;8.646;2023-03-19T11:01:50;4.03;;;2.70;;
10641;SDS011;5369;49.586;8.646;2023-03-19T11:04:21;4.03;;;2.63;;
10641;SDS011;5369;49.586;8.646;2023-03-19T11:06:48;5.13;;;2.50;;
10641;SDS011;5369;49.586;8.646;2023-03-19T11:09:27;4.63;;;2.70;;
10641;SDS011;5369;49.586;8.646;2023-03-19T11:11:57;4.13;;;2.37;;
10641;SDS011;5369;49.586;8.646;2023-03-19T11:14:26;3.60;;;2.50;;
10641;SDS011;5369;49.586;8.646;2023-03-19T11:17:01;5.50;;;2.63;;
10641;SDS011;5369;49.586;8.646;2023-03-19T11:19:29;6.23;;;2.83;;
10641;SDS011;5369;49.586;8.646;2023-03-19T11:22:00;6.17;;;2.63;;
10641;SDS011;5369;49.586;8.646;2023-03-19T11:24:26;3.87;;;2.50;;
10641;SDS011;5369;49.586;8.646;2023-03-19T11:26:53;3.97;;;2.33;;
10641;SDS011;5369;49.586;8.646;2023-03-19T11:29:20;4.83;;;2.63;;
10641;SDS011;5369;49.586;8.646;2023-03-19T11:31:49;4.47;;;2.57;;
10641;SDS011;5369;49.586;8.646;2023-03-19T11:37:07;3.83;;;2.83;;
10641;SDS011;5369;49.586;8.646;2023-03-19T11:39:54;3.10;;;2.80;;
10641;SDS011;5369;49.586;8.646;2023-03-19T11:55:27;4.93;;;3.13;;
10641;SDS011;5369;49.586;8.646;2023-03-19T12:00:45;3.67;;;2.50;;
10641;SDS011;5369;49.586;8.646;2023-03-19T12:05:58;3.07;;;2.30;;
10641;SDS011;5369;49.586;8.646;2023-03-19T12:11:02;3.67;;;2.50;;
10641;SDS011;5369;49.586;8.646;2023-03-19T12:13:36;3.53;;;2.70;;
10641;SDS011;5369;49.586;8.646;2023-03-19T12:21:16;3.83;;;2.30;;
10641;SDS011;5369;49.586;8.646;2023-03-19T12:24:05;5.07;;;2.70;;
10641;SDS011;5369;49.586;8.646;2023-03-19T12:26:46;4.37;;;2.70;;
10641;SDS011;5369;49.586;8.646;2023-03-19T12:29:19;3.20;;;2.50;;
10641;SDS011;5369;49.586;8.646;2023-03-19T12:32:49;2.90;;;2.30;;
10641;SDS011;5369;49.586;8.646;2023-03-19T12:34:48;14.20;;;2.80;;
10641;SDS011;5369;49.586;8.646;2023-03-19T12:37:17;23.23;;;3.00;;
10641;SDS011;5369;49.586;8.646;2023-03-19T12:39:48;3.40;;;2.37;;
10641;SDS011;5369;49.586;8.646;2023-03-19T12:42:16;2.93;;;2.30;;
10641;SDS011;5369;49.586;8.646;2023-03-19T12:44:45;4.33;;;2.07;;
10641;SDS011;5369;49.586;8.646;2023-03-19T12:47:15;2.97;;;2.40;;
10641;SDS011;5369;49.586;8.646;2023-03-19T12:49:44;3.60;;;2.23;;
10641;SDS011;5369;49.586;8.646;2023-03-19T12:52:14;3.20;;;2.33;;
10641;SDS011;5369;49.586;8.646;2023-03-19T12:54:44;4.33;;;2.33;;
10641;SDS011;5369;49.586;8.646;2023-03-19T12:57:24;5.07;;;2.30;;
10641;SDS011;5369;49.586;8.646;2023-03-19T12:59:57;3.77;;;2.50;;
10641;SDS011;5369;49.586;8.646;2023-03-19T13:07:53;4.70;;;2.57;;
10641;SDS011;5369;49.586;8.646;2023-03-19T13:10:19;2.67;;;2.00;;
10641;SDS011;5369;49.586;8.646;2023-03-19T13:12:46;2.60;;;2.40;;
10641;SDS011;5369;49.586;8.646;2023-03-19T13:23:00;5.37;;;2.90;;
10641;SDS011;5369;49.586;8.646;2023-03-19T13:25:32;3.80;;;2.40;;
10641;SDS011;5369;49.586;8.646;2023-03-19T13:27:59;3.83;;;2.73;;
10641;SDS011;5369;49.586;8.646;2023-03-19T13:30:25;5.33;;;2.60;;
10641;SDS011;5369;49.586;8.646;2023-03-19T13:32:52;3.80;;;2.60;;
10641;SDS011;5369;49.586;8.646;2023-03-19T13:35:26;3.30;;;2.13;;
10641;SDS011;5369;49.586;8.646;2023-03-19T13:37:58;4.30;;;2.40;;
10641;SDS011;5369;49.586;8.646;2023-03-19T13:43:03;5.03;;;2.70;;
10641;SDS011;5369;49.586;8.646;2023-03-19T13:45:36;5.27;;;2.77;;
10641;SDS011;5369;49.586;8.646;2023-03-19T13:48:21;4.20;;;2.77;;
10641;SDS011;5369;49.586;8.646;2023-03-19T13:50:50;5.30;;;2.80;;
10641;SDS011;5369;49.586;8.646;2023-03-19T13:53:21;4.07;;;2.40;;
10641;SDS011;5369;49.586;8.646;2023-03-19T13:55:50;3.37;;;2.30;;
10641;SDS011;5369;49.586;8.646;2023-03-19T13:58:20;6.23;;;3.03;;
10641;SDS011;5369;49.586;8.646;2023-03-19T14:03:58;3.30;;;2.57;;
10641;SDS011;5369;49.586;8.646;2023-03-19T14:09:04;5.07;;;2.87;;
10641;SDS011;5369;49.586;8.646;2023-03-19T14:11:32;5.83;;;3.20;;
10641;SDS011;5369;49.586;8.646;2023-03-19T14:14:01;5.13;;;2.90;;
10641;SDS011;5369;49.586;8.646;2023-03-19T14:16:36;2.90;;;2.60;;
10641;SDS011;5369;49.586;8.646;2023-03-19T14:19:08;2.97;;;2.37;;
10641;SDS011;5369;49.586;8.646;2023-03-19T14:21:39;2.77;;;2.40;;
10641;SDS011;5369;49.586;8.646;2023-03-19T14:24:19;2.80;;;2.13;;
10641;SDS011;5369;49.586;8.646;2023-03-19T14:26:46;4.17;;;2.23;;
10641;SDS011;5369;49.586;8.646;2023-03-19T14:29:13;2.03;;;1.83;;
10641;SDS011;5369;49.586;8.646;2023-03-19T14:31:47;3.13;;;2.00;;
10641;SDS011;5369;49.586;8.646;2023-03-19T14:34:29;2.73;;;2.00;;
10641;SDS011;5369;49.586;8.646;2023-03-19T14:37:01;3.93;;;2.00;;
10641;SDS011;5369;49.586;8.646;2023-03-19T14:39:29;2.80;;;2.00;;
10641;SDS011;5369;49.586;8.646;2023-03-19T14:42:04;3.20;;;2.03;;
10641;SDS011;5369;49.586;8.646;2023-03-19T14:44:38;3.43;;;2.27;;
10641;SDS011;5369;49.586;8.646;2023-03-19T14:47:15;3.13;;;2.17;;
10641;SDS011;5369;49.586;8.646;2023-03-19T14:52:13;3.27;;;2.10;;
10641;SDS011;5369;49.586;8.646;2023-03-19T14:54:45;4.20;;;2.40;;
10641;SDS011;5369;49.586;8.646;2023-03-19T14:57:17;2.10;;;1.90;;
10641;SDS011;5369;49.586;8.646;2023-03-19T14:59:44;3.30;;;2.10;;
10641;SDS011;5369;49.586;8.646;2023-03-19T15:04:43;2.30;;;1.80;;
10641;SDS011;5369;49.586;8.646;2023-03-19T15:07:16;2.43;;;1.97;;
10641;SDS011;5369;49.586;8.646;2023-03-19T15:09:43;2.20;;;2.00;;
10641;SDS011;5369;49.586;8.646;2023-03-19T15:17:27;3.20;;;1.93;;
10641;SDS011;5369;49.586;8.646;2023-03-19T15:19:57;2.33;;;2.10;;
10641;SDS011;5369;49.586;8.646;2023-03-19T15:22:26;2.10;;;1.90;;
10641;SDS011;5369;49.586;8.646;2023-03-19T15:25:03;2.10;;;1.70;;
10641;SDS011;5369;49.586;8.646;2023-03-19T15:27:30;2.70;;;2.10;;
10641;SDS011;5369;49.586;8.646;2023-03-19T15:29:56;4.20;;;3.80;;
10641;SDS011;5369;49.586;8.646;2023-03-19T15:32:32;3.13;;;2.13;;
10641;SDS011;5369;49.586;8.646;2023-03-19T15:34:58;2.03;;;1.70;;
10641;SDS011;5369;49.586;8.646;2023-03-19T15:37:24;2.40;;;1.63;;
10641;SDS011;5369;49.586;8.646;2023-03-19T15:39:53;1.70;;;1.60;;
10641;SDS011;5369;49.586;8.646;2023-03-19T15:42:21;2.57;;;1.53;;
10641;SDS011;5369;49.586;8.646;2023-03-19T15:44:48;1.90;;;1.60;;
10641;SDS011;5369;49.586;8.646;2023-03-19T15:47:18;2.40;;;1.50;;
10641;SDS011;5369;49.586;8.646;2023-03-19T15:49:48;2.80;;;1.97;;
10641;SDS011;5369;49.586;8.646;2023-03-19T15:52:16;3.47;;;1.93;;
10641;SDS011;5369;49.586;8.646;2023-03-19T15:54:43;2.47;;;2.07;;
10641;SDS011;5369;49.586;8.646;2023-03-19T15:57:11;2.20;;;2.00;;
10641;SDS011;5369;49.586;8.646;2023-03-19T15:59:38;2.17;;;1.97;;
10641;SDS011;5369;49.586;8.646;2023-03-19T16:02:12;3.43;;;1.83;;
10641;SDS011;5369;49.586;8.646;2023-03-19T16:04:41;2.67;;;1.80;;
10641;SDS011;5369;49.586;8.646;2023-03-19T16:07:19;1.93;;;1.60;;
10641;SDS011;5369;49.586;8.646;2023-03-19T16:09:47;2.90;;;1.70;;
10641;SDS011;5369;49.586;8.646;2023-03-19T16:12:27;2.20;;;1.80;;
10641;SDS011;5369;49.586;8.646;2023-03-19T16:14:56;2.07;;;1.70;;
10641;SDS011;5369;49.586;8.646;2023-03-19T16:17:33;1.77;;;1.53;;
10641;SDS011;5369;49.586;8.646;2023-03-19T16:20:00;1.77;;;1.47;;
10641;SDS011;5369;49.586;8.646;2023-03-19T16:22:27;3.37;;;1.73;;
10641;SDS011;5369;49.586;8.646;2023-03-19T16:24:54;1.77;;;1.43;;
10641;SDS011;5369;49.586;8.646;2023-03-19T16:27:21;2.43;;;1.60;;
10641;SDS011;5369;49.586;8.646;2023-03-19T16:29:57;2.47;;;1.80;;
10641;SDS011;5369;49.586;8.646;2023-03-19T16:32:25;2.27;;;1.40;;
10641;SDS011;5369;49.586;8.646;2023-03-19T16:34:56;2.73;;;1.80;;